Decoded Metar for KARG (WALNUT RIDGE in AR, USA) (IATA:ARG) | Meteo·Mobile Aviation Weather
aviador You're here:

KARG Decoded Metar

WALNUT RIDGE in AR, USA
Report Time2018-09-20 08:56:00
UTC Time2018-09-20 09:21:08
Flight Rules vfr VFR
WindCalm
Visibility9999 m
Phenomena:N/A
Clouds:N/A
Expected CloudBase > 800 ft AGL from Temp-Dew spread
CeilingNone
Temp23°C (ISA +9)
Dew Point21°C (89% RH)
QNH1015 hPa
Density Alt1,526 ft
Elevation272 ft
Report Wrong Elevation
Raw Report
KARG 200856Z AUTO 00000KT 10SM CLR 23/21 A2998 RMK AO2 SLP149
T02280211 53004=

Extra information for KARG:More info

Metar Taf Metar & Taf Last 4 Metars F.Rules Stats Wind Profile Meteogram Temp Stats Airport Information Weather charts Add Link Nearby VenuesMetar ALERT Operation Metar Decoded Social comments

AIRNAV info for KARG